Time;durP1;ratioP1;P1;durP2;ratioP2;P2;SDS_P1;SDS_P2;PMS_P1;PMS_P2;Temp;Humidity;BMP_temperature;BMP_pressure;BME280_temperature;BME280_humidity;BME280_pressure;Samples;Min_cycle;Max_cycle;Signal;HPM_P1;HPM_P2
2023/10/13 00:02:01;;;;;;;4.45;4.05;;;29.40;99.90;;;;;;5056124;28;20075;-51
2023/10/13 00:04:32;;;;;;;6.25;4.18;;;29.30;99.90;;;;;;5055708;28;20032;-51
2023/10/13 00:06:59;;;;;;;5.32;4.32;;;29.30;99.90;;;;;;5055460;28;20104;-51
2023/10/13 00:09:32;;;;;;;5.07;4.25;;;29.30;99.90;;;;;;5055530;28;20029;-51
2023/10/13 00:11:58;;;;;;;5.20;4.25;;;29.30;99.90;;;;;;5055594;28;20024;-51
2023/10/13 00:14:33;;;;;;;6.32;4.55;;;29.30;99.90;;;;;;5055474;28;20027;-51
2023/10/13 00:17:03;;;;;;;6.20;5.20;;;29.20;99.90;;;;;;5055414;28;20032;-50
2023/10/13 00:19:38;;;;;;;5.10;4.55;;;29.20;99.90;;;;;;5055290;28;20025;-50
2023/10/13 00:22:11;;;;;;;6.78;5.47;;;29.20;99.90;;;;;;5055194;28;20039;-51
2023/10/13 00:24:48;;;;;;;7.68;5.43;;;29.20;99.90;;;;;;5055192;28;20021;-50
2023/10/13 00:27:33;;;;;;;6.78;5.80;;;29.20;99.90;;;;;;5055339;28;20017;-51
2023/10/13 00:32:53;;;;;;;8.57;6.53;;;29.20;99.90;;;;;;5055429;28;20175;-51
2023/10/13 00:35:25;;;;;;;6.53;5.70;;;29.20;99.90;;;;;;5055052;28;20117;-51
2023/10/13 00:37:55;;;;;;;7.43;6.32;;;29.20;99.90;;;;;;5054884;28;20025;-50
2023/10/13 00:40:55;;;;;;;7.80;6.63;;;29.10;99.90;;;;;;5055041;28;20491;-50
2023/10/13 00:45:55;;;;;;;7.78;6.28;;;29.10;99.90;;;;;;5055032;28;20477;-49
2023/10/13 00:48:33;;;;;;;7.80;6.03;;;29.10;99.90;;;;;;5054809;28;20021;-50
2023/10/13 00:51:07;;;;;;;7.78;6.53;;;29.10;99.90;;;;;;5054759;28;20053;-50
2023/10/13 00:53:39;;;;;;;7.18;6.28;;;29.10;99.90;;;;;;5054575;28;20024;-49
2023/10/13 00:56:07;;;;;;;7.78;6.00;;;29.00;99.90;;;;;;5054617;28;20057;-50
2023/10/13 00:58:39;;;;;;;7.07;5.45;;;29.00;99.90;;;;;;5036936;28;20033;-49
2023/10/13 01:01:54;;;;;;;6.15;5.55;;;29.00;99.90;;;;;;5054805;28;20084;-50
2023/10/13 01:03:59;;;;;;;7.70;6.53;;;29.00;99.90;;;;;;5040229;28;20061;-50
2023/10/13 01:06:29;;;;;;;7.10;5.95;;;29.00;99.90;;;;;;5054273;28;20057;-50
2023/10/13 01:11:54;;;;;;;6.75;5.88;;;29.00;99.90;;;;;;5053097;28;20061;-51
2023/10/13 01:14:21;;;;;;;6.53;5.75;;;29.00;99.90;;;;;;5054424;28;20021;-52
2023/10/13 01:16:52;;;;;;;7.30;5.97;;;29.00;99.90;;;;;;5054295;28;20074;-51
2023/10/13 01:19:19;;;;;;;6.85;5.88;;;28.90;99.90;;;;;;5054371;28;20424;-50
2023/10/13 01:21:48;;;;;;;6.38;5.78;;;28.90;99.90;;;;;;5054095;28;20071;-50
2023/10/13 01:24:14;;;;;;;7.25;5.38;;;28.90;99.90;;;;;;5036578;28;20029;-50
2023/10/13 01:26:42;;;;;;;5.90;5.13;;;28.90;99.90;;;;;;5054191;28;20386;-50
2023/10/13 01:29:12;;;;;;;7.05;5.85;;;28.90;99.90;;;;;;5054042;28;20029;-50
2023/10/13 01:31:45;;;;;;;6.88;5.75;;;28.90;99.90;;;;;;5054051;28;20036;-50
2023/10/13 01:34:12;;;;;;;7.82;6.10;;;28.80;99.90;;;;;;5053957;28;20029;-50
2023/10/13 01:36:40;;;;;;;6.63;5.90;;;28.80;99.90;;;;;;5053808;28;20430;-50
2023/10/13 01:39:10;;;;;;;7.00;6.30;;;28.80;99.90;;;;;;5053736;28;20013;-50
2023/10/13 01:41:38;;;;;;;6.55;5.72;;;28.90;99.90;;;;;;5053763;28;20017;-50
2023/10/13 01:44:05;;;;;;;6.25;5.57;;;28.80;99.90;;;;;;5053787;28;20020;-50
2023/10/13 01:46:31;;;;;;;7.28;6.22;;;28.80;99.90;;;;;;5053714;28;20021;-50
2023/10/13 01:48:56;;;;;;;7.43;5.75;;;28.80;99.90;;;;;;5053620;28;20496;-51
2023/10/13 01:51:23;;;;;;;7.78;5.38;;;28.80;99.90;;;;;;5053569;28;20572;-50
2023/10/13 01:53:56;;;;;;;7.88;5.80;;;28.80;99.90;;;;;;5053851;28;20028;-50
2023/10/13 01:56:23;;;;;;;7.90;5.95;;;28.80;99.90;;;;;;5053524;28;20052;-50
2023/10/13 01:58:49;;;;;;;7.03;5.38;;;28.80;99.90;;;;;;5053819;28;20027;-49
2023/10/13 02:01:26;;;;;;;6.75;5.13;;;28.70;99.90;;;;;;5057585;22;20060;-53
2023/10/13 02:04:01;;;;;;;6.63;5.72;;;28.70;99.90;;;;;;5033528;28;20030;-53
2023/10/13 02:06:32;;;;;;;6.88;5.53;;;28.70;99.90;;;;;;5033250;28;20017;-54
2023/10/13 02:09:05;;;;;;;5.78;5.10;;;28.70;99.90;;;;;;5033346;28;20030;-55
2023/10/13 02:11:31;;;;;;;6.82;5.30;;;28.70;99.90;;;;;;5015322;28;20056;-54
2023/10/13 02:13:57;;;;;;;6.55;5.45;;;28.70;99.90;;;;;;5033025;28;20433;-54
2023/10/13 02:16:25;;;;;;;5.78;4.72;;;28.70;99.90;;;;;;5033219;28;20121;-54
2023/10/13 02:18:54;;;;;;;5.70;4.70;;;28.70;99.90;;;;;;5033156;28;20100;-54
2023/10/13 02:21:19;;;;;;;6.13;5.43;;;28.70;99.90;;;;;;5033197;28;20052;-54
2023/10/13 02:23:45;;;;;;;7.90;5.65;;;28.60;99.90;;;;;;5032793;28;20090;-55
2023/10/13 02:26:30;;;;;;;5.85;4.97;;;28.60;99.90;;;;;;5032965;28;20029;-54
2023/10/13 02:29:04;;;;;;;6.07;5.00;;;28.60;99.90;;;;;;5032943;28;20481;-54
2023/10/13 02:31:30;;;;;;;6.93;5.60;;;28.60;99.90;;;;;;5032866;28;20045;-54
2023/10/13 02:33:56;;;;;;;5.70;5.10;;;28.60;99.90;;;;;;5032862;28;20040;-54
2023/10/13 02:36:23;;;;;;;6.05;4.97;;;28.60;99.90;;;;;;5032721;28;20022;-54
2023/10/13 02:38:50;;;;;;;7.85;5.78;;;28.60;99.90;;;;;;5032898;28;20466;-53
2023/10/13 02:41:27;;;;;;;;;;;28.60;99.90;;;;;;5033370;28;20030;-53
2023/10/13 02:43:54;;;;;;;5.43;4.80;;;28.60;99.90;;;;;;5032649;28;19920;-53
2023/10/13 02:46:28;;;;;;;5.60;4.97;;;28.50;99.90;;;;;;5015179;28;20504;-53
2023/10/13 02:48:55;;;;;;;6.80;5.35;;;28.60;99.90;;;;;;5032788;28;20021;-54
2023/10/13 02:51:36;;;;;;;6.63;4.78;;;28.50;99.90;;;;;;5032725;28;20021;-52
2023/10/13 02:54:10;;;;;;;6.68;5.18;;;28.60;99.90;;;;;;5032515;28;20061;-55
2023/10/13 02:56:36;;;;;;;5.75;5.10;;;28.50;99.90;;;;;;5032623;28;20029;-53
2023/10/13 02:59:05;;;;;;;5.95;5.10;;;28.50;99.90;;;;;;5024459;28;20025;-55
2023/10/13 03:01:35;;;;;;;6.07;5.13;;;28.50;99.90;;;;;;5047608;23;20049;-46
2023/10/13 03:04:03;;;;;;;4.88;4.38;;;28.50;99.90;;;;;;5032385;28;20056;-46
2023/10/13 03:06:32;;;;;;;5.55;4.95;;;28.50;99.90;;;;;;5032558;28;20443;-46
2023/10/13 03:09:14;;;;;;;5.22;4.65;;;28.50;99.90;;;;;;5032413;28;20096;-46
2023/10/13 03:11:48;;;;;;;7.30;4.90;;;28.50;99.90;;;;;;5032452;28;20108;-46
2023/10/13 03:14:24;;;;;;;5.47;4.65;;;28.50;99.90;;;;;;5032255;28;20056;-46
2023/10/13 03:17:08;;;;;;;5.85;5.10;;;28.50;99.90;;;;;;5032471;28;20087;-46
2023/10/13 03:19:36;;;;;;;5.65;4.82;;;28.40;99.90;;;;;;5032178;28;20461;-46
2023/10/13 03:22:15;;;;;;;7.57;5.05;;;28.40;99.90;;;;;;5032158;28;20441;-45
2023/10/13 03:24:46;;;;;;;6.03;4.63;;;28.40;99.90;;;;;;5032085;28;20081;-46
2023/10/13 03:27:16;;;;;;;5.85;4.57;;;28.40;99.90;;;;;;5032083;28;20026;-46
2023/10/13 03:29:46;;;;;;;5.32;4.55;;;28.40;99.90;;;;;;5032062;28;20028;-46
2023/10/13 03:32:16;;;;;;;5.13;4.63;;;28.40;99.90;;;;;;5032158;28;20112;-46
2023/10/13 03:37:51;;;;;;;5.68;4.68;;;28.40;99.90;;;;;;5036248;28;20476;-47
2023/10/13 03:45:42;;;;;;;5.30;4.47;;;28.40;99.90;;;;;;5036233;28;20076;-45
2023/10/13 03:51:03;;;;;;;5.40;4.65;;;28.30;99.90;;;;;;5036172;28;20028;-46
2023/10/13 03:53:53;;;;;;;5.95;4.28;;;28.30;99.90;;;;;;5035823;28;20021;-47
2023/10/13 03:56:26;;;;;;;6.22;4.80;;;28.30;99.90;;;;;;5035836;28;20029;-46
2023/10/13 03:59:06;;;;;;;6.32;5.00;;;28.30;99.90;;;;;;5035861;28;20029;-46
2023/10/13 04:02:21;;;;;;;5.43;4.88;;;28.30;99.90;;;;;;5043994;28;20412;-46
2023/10/13 04:07:14;;;;;;;6.55;4.57;;;28.30;99.90;;;;;;5055511;28;20044;-46
2023/10/13 04:15:21;;;;;;;6.13;4.25;;;28.30;99.90;;;;;;4964658;28;20039;-46
2023/10/13 04:17:48;;;;;;;5.55;4.03;;;28.30;99.90;;;;;;5053362;28;20017;-46
2023/10/13 04:20:27;;;;;;;5.03;4.53;;;28.30;99.90;;;;;;5055330;28;20021;-46
2023/10/13 04:25:52;;;;;;;5.43;4.20;;;28.20;99.90;;;;;;5055141;28;20036;-46
2023/10/13 04:28:34;;;;;;;4.57;4.10;;;28.20;99.90;;;;;;5055068;28;20025;-46
2023/10/13 04:31:11;;;;;;;5.03;4.50;;;28.20;99.90;;;;;;5055015;28;20048;-50
2023/10/13 04:33:51;;;;;;;5.05;4.40;;;28.20;99.90;;;;;;5054998;28;20027;-47
2023/10/13 04:41:43;;;;;;;5.70;4.57;;;28.20;99.90;;;;;;5054925;28;20029;-46
2023/10/13 04:47:07;;;;;;;5.30;4.35;;;28.10;99.90;;;;;;5055156;28;20028;-49
2023/10/13 04:54:34;;;;;;;4.80;4.20;;;28.10;99.90;;;;;;5054713;28;19940;-46
2023/10/13 05:51:33;;;;;;;5.72;4.43;;;27.90;99.90;;;;;;5053667;28;20481;-44
2023/10/13 06:29:55;;;;;;;4.95;3.88;;;27.70;99.90;;;;;;5053244;28;20074;-46
2023/10/13 06:32:28;;;;;;;5.15;3.95;;;27.70;99.90;;;;;;5052591;28;20024;-45
2023/10/13 06:34:57;;;;;;;6.32;4.28;;;27.80;99.90;;;;;;5052658;28;20033;-46
2023/10/13 06:37:30;;;;;;;5.10;3.97;;;27.70;99.90;;;;;;5052764;28;20565;-46
2023/10/13 06:40:25;;;;;;;5.03;3.60;;;27.70;99.90;;;;;;5052632;28;20056;-46
2023/10/13 06:43:12;;;;;;;5.75;3.42;;;27.70;99.90;;;;;;5052555;28;20061;-47
2023/10/13 06:45:41;;;;;;;7.60;3.83;;;27.70;99.90;;;;;;5052758;28;20381;-46
2023/10/13 06:48:12;;;;;;;5.63;3.67;;;27.70;99.90;;;;;;5052602;28;20036;-46
2023/10/13 06:50:46;;;;;;;5.03;4.10;;;27.70;99.90;;;;;;5052708;28;20017;-45
2023/10/13 06:53:12;;;;;;;4.32;3.63;;;27.70;99.90;;;;;;5052395;28;20537;-46
2023/10/13 06:55:39;;;;;;;5.57;4.07;;;27.80;99.90;;;;;;5052520;28;20121;-46
2023/10/13 06:58:06;;;;;;;4.70;3.70;;;27.70;99.90;;;;;;5052662;28;20029;-45
2023/10/13 07:00:34;;;;;;;5.80;3.40;;;27.70;99.90;;;;;;5034604;28;20406;-45
2023/10/13 07:03:07;;;;;;;6.15;3.38;;;27.70;99.90;;;;;;5052504;28;20112;-45
2023/10/13 07:05:37;;;;;;;5.35;3.53;;;27.80;99.90;;;;;;5052448;28;20096;-45
2023/10/13 07:08:08;;;;;;;6.45;4.20;;;27.70;99.90;;;;;;5052095;28;20104;-45
2023/10/13 07:10:51;;;;;;;8.35;4.32;;;27.70;99.90;;;;;;5052141;28;20021;-46
2023/10/13 07:13:19;;;;;;;5.82;3.53;;;27.80;99.90;;;;;;5052168;28;20020;-45
2023/10/13 07:15:45;;;;;;;5.10;3.50;;;27.70;99.90;;;;;;5034182;28;20389;-46
2023/10/13 07:18:17;;;;;;;4.72;3.17;;;27.80;99.90;;;;;;5052065;28;20075;-45
2023/10/13 07:20:45;;;;;;;8.18;3.47;;;27.80;99.90;;;;;;5052141;28;20055;-46
2023/10/13 07:23:17;;;;;;;4.28;2.80;;;27.80;99.90;;;;;;5034252;28;20442;-46
2023/10/13 07:26:01;;;;;;;4.70;3.55;;;27.80;99.90;;;;;;5052058;28;20028;-46
2023/10/13 07:28:27;;;;;;;4.80;3.50;;;27.90;99.90;;;;;;5052293;28;20431;-46
2023/10/13 07:33:21;;;;;;;6.32;3.45;;;27.90;99.90;;;;;;5052039;28;20100;-46
2023/10/13 07:35:51;;;;;;;5.85;3.90;;;27.90;99.90;;;;;;5052016;28;20469;-45
2023/10/13 07:38:21;;;;;;;3.83;3.20;;;27.90;99.90;;;;;;5052006;28;20025;-45
2023/10/13 07:40:51;;;;;;;5.30;4.00;;;28.00;99.90;;;;;;5051975;28;20040;-45
2023/10/13 07:43:21;;;;;;;3.75;3.10;;;28.00;99.90;;;;;;5051758;28;20029;-45
2023/10/13 07:45:50;;;;;;;6.57;3.83;;;28.00;99.90;;;;;;5051764;28;20496;-45
2023/10/13 07:48:20;;;;;;;4.28;3.75;;;28.00;99.90;;;;;;5034663;28;20022;-45
2023/10/13 07:50:48;;;;;;;4.53;3.80;;;28.00;99.90;;;;;;5051706;28;20021;-45
2023/10/13 07:53:23;;;;;;;4.63;3.47;;;28.10;99.90;;;;;;5051806;28;20488;-45
2023/10/13 07:55:56;;;;;;;6.68;4.38;;;28.10;99.90;;;;;;5051806;28;20029;-45
2023/10/13 07:58:27;;;;;;;6.00;3.70;;;28.10;99.90;;;;;;5051740;28;20025;-45
2023/10/13 08:08:42;;;;;;;4.38;3.10;;;28.20;99.90;;;;;;5051856;28;20018;-45
2023/10/13 08:11:11;;;;;;;;;;;28.20;99.90;;;;;;5052184;28;20082;-45
2023/10/13 08:13:46;;;;;;;4.03;3.47;;;28.20;99.90;;;;;;5050727;28;19905;-45
2023/10/13 08:16:20;;;;;;;5.13;3.10;;;28.30;99.90;;;;;;5051604;28;20017;-45
2023/10/13 08:18:49;;;;;;;5.97;3.42;;;28.30;99.90;;;;;;5051499;28;20017;-45
2023/10/13 08:21:19;;;;;;;4.28;3.70;;;28.30;99.90;;;;;;5054209;28;20400;-46
2023/10/13 08:26:56;;;;;;;4.95;3.60;;;28.30;99.90;;;;;;5055276;28;20040;-45
2023/10/13 08:34:59;;;;;;;5.00;3.25;;;28.40;99.90;;;;;;5055073;28;20021;-46
2023/10/13 08:45:20;;;;;;;6.32;3.55;;;28.40;99.90;;;;;;5054903;28;20040;-45
2023/10/13 08:53:32;;;;;;;4.60;3.47;;;28.50;99.90;;;;;;5054529;28;20026;-46
2023/10/13 09:01:35;;;;;;;6.75;3.65;;;28.50;99.90;;;;;;5054250;28;20061;-46
2023/10/13 09:06:47;;;;;;;5.80;3.72;;;28.50;99.90;;;;;;5054246;28;20025;-45
2023/10/13 09:12:09;;;;;;;6.53;3.63;;;28.60;99.90;;;;;;5054566;28;20385;-46
2023/10/13 09:14:57;;;;;;;6.65;4.10;;;28.60;99.90;;;;;;5053870;28;20104;-46
2023/10/13 09:17:35;;;;;;;8.32;3.97;;;28.60;99.90;;;;;;5054133;28;20025;-47
2023/10/13 09:23:07;;;;;;;6.53;3.70;;;28.70;99.90;;;;;;5053999;28;20036;-46
2023/10/13 09:25:53;;;;;;;4.78;3.70;;;28.70;99.90;;;;;;5053968;28;20040;-47
2023/10/13 09:28:22;;;;;;;6.35;3.85;;;28.70;99.90;;;;;;5054197;28;20393;-47
2023/10/13 09:30:52;;;;;;;4.85;3.70;;;28.80;99.90;;;;;;5036052;28;20074;-46
2023/10/13 09:33:32;;;;;;;5.50;3.80;;;28.80;99.90;;;;;;5053013;28;20025;-46
2023/10/13 09:35:59;;;;;;;7.15;4.25;;;28.80;99.90;;;;;;5053964;28;20036;-46
2023/10/13 09:38:28;;;;;;;7.00;4.45;;;28.80;99.90;;;;;;5053816;28;20025;-46
2023/10/13 09:40:57;;;;;;;5.57;3.90;;;28.90;99.90;;;;;;5053745;28;20151;-47
2023/10/13 09:43:30;;;;;;;4.50;3.67;;;28.90;99.90;;;;;;5035574;28;20055;-47
2023/10/13 09:46:07;;;;;;;6.00;4.05;;;28.90;99.90;;;;;;5053530;28;20373;-46
2023/10/13 09:48:45;;;;;;;6.10;4.22;;;28.90;99.90;;;;;;5053502;28;20024;-47
2023/10/13 09:51:19;;;;;;;5.70;4.00;;;29.00;99.90;;;;;;5053603;28;20036;-46
2023/10/13 09:53:57;;;;;;;6.57;4.20;;;29.00;99.90;;;;;;5053444;28;20017;-46
2023/10/13 09:56:51;;;;;;;6.88;3.67;;;29.00;99.90;;;;;;5036890;28;20021;-47
2023/10/13 09:59:24;;;;;;;6.13;4.53;;;29.10;99.90;;;;;;5053419;28;20017;-46
2023/10/13 10:02:08;;;;;;;6.93;4.30;;;29.10;99.90;;;;;;5035244;28;20073;-46
2023/10/13 10:04:44;;;;;;;8.45;4.00;;;29.20;99.90;;;;;;5053275;28;20032;-46
2023/10/13 10:07:10;;;;;;;5.32;3.85;;;29.20;99.90;;;;;;5053554;28;20025;-46
2023/10/13 10:09:37;;;;;;;6.05;4.05;;;29.20;99.90;;;;;;5053480;28;20032;-46
2023/10/13 10:12:35;;;;;;;7.45;4.00;;;29.20;99.90;;;;;;5053212;28;20032;-46
2023/10/13 10:15:35;;;;;;;6.78;3.90;;;29.20;99.90;;;;;;5053254;28;20082;-46
2023/10/13 10:18:03;;;;;;;5.90;4.25;;;29.30;99.90;;;;;;5010120;28;20041;-46
2023/10/13 10:20:42;;;;;;;6.90;4.32;;;29.30;99.90;;;;;;5053156;28;20013;-46
2023/10/13 10:23:21;;;;;;;6.20;3.88;;;29.40;99.90;;;;;;5052912;28;20033;-46
2023/10/13 10:25:50;;;;;;;7.05;3.70;;;29.40;99.90;;;;;;5052943;28;20025;-46
2023/10/13 10:28:16;;;;;;;6.25;4.20;;;29.40;99.90;;;;;;5053038;28;20439;-46
2023/10/13 10:30:43;;;;;;;5.57;3.60;;;29.40;99.90;;;;;;5052949;28;20104;-47
2023/10/13 10:33:15;;;;;;;5.63;3.88;;;29.50;99.90;;;;;;5052963;28;20032;-46
2023/10/13 10:35:58;;;;;;;6.07;4.03;;;29.50;99.90;;;;;;5053004;28;20032;-46
2023/10/13 10:38:37;;;;;;;6.72;3.70;;;29.50;99.90;;;;;;5052846;28;20438;-46
2023/10/13 10:41:05;;;;;;;6.38;3.63;;;29.60;99.90;;;;;;5034985;28;20021;-45
2023/10/13 10:43:43;;;;;;;5.68;4.00;;;29.60;99.90;;;;;;5052409;28;20029;-47
2023/10/13 10:46:16;;;;;;;4.93;3.78;;;29.60;99.90;;;;;;5052696;28;20108;-46
2023/10/13 10:48:44;;;;;;;4.93;4.10;;;29.70;99.90;;;;;;5053059;28;20024;-46
2023/10/13 10:51:24;;;;;;;5.10;3.97;;;29.70;99.90;;;;;;5052595;28;20021;-47
2023/10/13 10:53:51;;;;;;;7.13;3.92;;;29.70;99.90;;;;;;5052472;28;20124;-45
2023/10/13 10:56:36;;;;;;;4.30;3.50;;;29.70;99.90;;;;;;5052488;28;20488;-45
2023/10/13 10:59:04;;;;;;;8.07;3.65;;;29.80;99.90;;;;;;5052388;28;20028;-46
2023/10/13 11:01:38;;;;;;;6.22;3.83;;;29.80;99.90;;;;;;5052298;28;20489;-47
2023/10/13 11:04:24;;;;;;;4.38;3.80;;;29.80;99.90;;;;;;5052315;28;20079;-46
2023/10/13 11:06:57;;;;;;;7.65;3.95;;;29.90;99.90;;;;;;5052391;28;20102;-45
2023/10/13 11:09:36;;;;;;;6.15;3.63;;;29.90;99.90;;;;;;5052239;28;20053;-46
2023/10/13 11:12:43;;;;;;;6.38;3.95;;;29.90;99.90;;;;;;5052153;28;20025;-46
2023/10/13 11:15:14;;;;;;;4.97;3.25;;;29.90;99.90;;;;;;5049894;28;20120;-45
2023/10/13 11:17:48;;;;;;;5.63;3.95;;;29.90;99.90;;;;;;5052113;28;20045;-45
2023/10/13 11:20:18;;;;;;;7.43;4.38;;;29.90;99.90;;;;;;5052342;28;20115;-46
2023/10/13 11:22:48;;;;;;;5.70;3.95;;;29.90;99.90;;;;;;5034528;28;20465;-46
2023/10/13 11:25:22;;;;;;;4.25;3.42;;;30.00;99.90;;;;;;5052431;28;20469;-46
2023/10/13 11:33:07;;;;;;;6.18;4.03;;;30.10;99.90;;;;;;5052192;28;20385;-46
2023/10/13 11:38:26;;;;;;;5.28;3.55;;;30.10;99.90;;;;;;5052227;28;20071;-46
2023/10/13 11:43:44;;;;;;;5.80;3.88;;;30.20;99.90;;;;;;5051784;28;20036;-47
2023/10/13 11:46:15;;;;;;;6.90;4.38;;;30.20;99.90;;;;;;5051951;28;20104;-46
2023/10/13 11:48:46;;;;;;;5.35;3.38;;;30.20;99.90;;;;;;5051966;28;20028;-46
2023/10/13 11:51:23;;;;;;;4.75;4.22;;;30.20;99.90;;;;;;5051991;28;20022;-46
2023/10/13 11:53:53;;;;;;;5.32;3.78;;;30.20;99.90;;;;;;5052138;28;20381;-47
2023/10/13 11:56:24;;;;;;;4.80;3.63;;;30.30;99.90;;;;;;5054890;28;20029;-47
2023/10/13 11:58:50;;;;;;;4.35;3.60;;;30.30;99.90;;;;;;5038198;28;20047;-46
2023/10/13 12:04:30;;;;;;;3.60;3.30;;;30.30;99.90;;;;;;5055835;28;20045;-44
2023/10/13 12:10:02;;;;;;;4.93;3.50;;;30.30;99.90;;;;;;5055587;28;20508;-45
2023/10/13 12:12:30;;;;;;;5.05;3.78;;;30.40;99.90;;;;;;5055413;28;20029;-45
2023/10/13 12:14:56;;;;;;;5.25;3.75;;;30.40;99.90;;;;;;5055456;28;20035;-46
2023/10/13 12:17:34;;;;;;;3.63;3.25;;;30.40;99.90;;;;;;5055540;28;20104;-46
2023/10/13 12:20:05;;;;;;;4.05;3.40;;;30.40;99.90;;;;;;5055471;28;20025;-46
2023/10/13 12:22:42;;;;;;;4.32;3.78;;;30.40;99.90;;;;;;5055350;28;20025;-46
2023/10/13 12:28:06;;;;;;;4.47;3.33;;;30.50;99.90;;;;;;5055434;28;20071;-46
2023/10/13 12:30:51;;;;;;;4.90;3.60;;;30.50;99.90;;;;;;5055276;28;20032;-46
2023/10/13 12:33:24;;;;;;;5.07;3.53;;;30.50;99.90;;;;;;5055373;28;20032;-46
2023/10/13 12:36:11;;;;;;;5.88;3.78;;;30.50;99.90;;;;;;5055311;28;20497;-46
2023/10/13 12:38:51;;;;;;;;;;;30.50;99.90;;;;;;5055445;28;20024;-46
2023/10/13 12:52:15;;;;;;;4.85;3.45;;;30.50;99.90;;;;;;5054937;28;20063;-46
2023/10/13 12:57:24;;;;;;;6.03;4.18;;;30.50;99.90;;;;;;5054617;28;20358;-46
2023/10/13 12:59:53;;;;;;;4.00;3.47;;;30.50;99.90;;;;;;5054890;28;20112;-46
2023/10/13 13:02:25;;;;;;;3.58;3.17;;;30.60;99.90;;;;;;5054654;28;20103;-45
2023/10/13 13:04:56;;;;;;;6.63;3.63;;;30.50;99.90;;;;;;5054712;28;20027;-46
2023/10/13 13:07:28;;;;;;;4.75;3.80;;;30.50;99.90;;;;;;5053355;28;20021;-45
2023/10/13 13:09:58;;;;;;;5.75;3.78;;;30.50;99.90;;;;;;5054628;28;20530;-46
2023/10/13 13:12:30;;;;;;;6.07;4.03;;;30.60;99.90;;;;;;5054561;28;20366;-46
2023/10/13 13:14:55;;;;;;;4.03;3.42;;;30.60;99.90;;;;;;5054402;28;20480;-46
2023/10/13 13:17:22;;;;;;;7.55;4.40;;;30.60;99.90;;;;;;5054583;28;20021;-46
2023/10/13 13:19:47;;;;;;;5.60;4.18;;;30.60;99.90;;;;;;5020208;28;20366;-45
2023/10/13 13:22:13;;;;;;;4.53;3.80;;;30.60;99.90;;;;;;5054214;28;20040;-46
2023/10/13 13:24:44;;;;;;;4.90;3.65;;;30.60;99.90;;;;;;5054216;28;20147;-45
2023/10/13 13:27:14;;;;;;;5.65;3.90;;;30.60;99.90;;;;;;5054227;28;20466;-45
2023/10/13 13:29:45;;;;;;;4.15;3.40;;;30.60;99.90;;;;;;5054208;28;20493;-46
2023/10/13 13:32:18;;;;;;;5.53;3.88;;;30.60;99.90;;;;;;5054101;28;20032;-46
2023/10/13 13:34:57;;;;;;;4.25;3.67;;;30.60;99.90;;;;;;5054084;28;20021;-47
2023/10/13 13:37:27;;;;;;;5.35;4.05;;;30.60;99.90;;;;;;5054188;28;20040;-46
2023/10/13 13:39:53;;;;;;;5.13;4.03;;;30.70;99.90;;;;;;5054268;28;20570;-46
2023/10/13 13:42:20;;;;;;;4.55;4.03;;;30.60;99.90;;;;;;5053858;28;20069;-46
2023/10/13 13:44:48;;;;;;;4.53;3.72;;;30.60;99.90;;;;;;5053804;28;20044;-46
2023/10/13 13:47:14;;;;;;;4.38;3.72;;;30.60;99.90;;;;;;5053771;28;20055;-47
2023/10/13 13:49:46;;;;;;;4.50;3.78;;;30.60;99.90;;;;;;5053502;28;20027;-44
2023/10/13 13:52:17;;;;;;;4.28;3.28;;;30.60;99.90;;;;;;5053897;28;20049;-46
2023/10/13 13:54:44;;;;;;;4.80;4.25;;;30.60;99.90;;;;;;5053657;28;20083;-46
2023/10/13 13:57:09;;;;;;;4.28;3.65;;;30.60;99.90;;;;;;5053756;28;20025;-46
2023/10/13 13:59:36;;;;;;;4.70;3.80;;;30.60;99.90;;;;;;5035642;28;20021;-46
2023/10/13 14:02:19;;;;;;;6.13;3.60;;;30.60;99.90;;;;;;5053344;28;20052;-46
2023/10/13 14:04:50;;;;;;;4.60;3.88;;;30.60;99.90;;;;;;5053450;28;20116;-46
2023/10/13 14:07:19;;;;;;;5.13;4.18;;;30.60;99.90;;;;;;5053201;28;20049;-47
2023/10/13 14:09:51;;;;;;;6.22;3.90;;;30.60;99.90;;;;;;5053269;28;20021;-47
2023/10/13 14:12:36;;;;;;;3.45;3.15;;;30.60;99.90;;;;;;5053388;28;20037;-46
2023/10/13 14:15:02;;;;;;;4.88;3.80;;;30.60;99.90;;;;;;5053155;28;20025;-46
2023/10/13 14:17:35;;;;;;;5.20;4.22;;;30.70;99.90;;;;;;5052885;28;20025;-47
2023/10/13 14:20:09;;;;;;;4.30;3.72;;;30.70;99.90;;;;;;5053122;28;20021;-46
2023/10/13 14:22:37;;;;;;;4.68;3.58;;;30.70;99.90;;;;;;5053115;28;20033;-46
2023/10/13 14:25:08;;;;;;;4.30;3.78;;;30.70;99.90;;;;;;5052960;28;20017;-46
2023/10/13 14:27:35;;;;;;;5.00;4.03;;;30.70;99.90;;;;;;5053011;28;20034;-46
2023/10/13 14:30:02;;;;;;;4.63;3.83;;;30.70;99.90;;;;;;5052929;28;20028;-46
2023/10/13 14:32:28;;;;;;;4.70;3.50;;;30.70;99.90;;;;;;5052848;28;20025;-46
2023/10/13 14:34:56;;;;;;;5.50;3.78;;;30.70;99.90;;;;;;5052920;28;20025;-46
2023/10/13 14:37:31;;;;;;;;;;;30.70;99.90;;;;;;5053256;28;20055;-46
2023/10/13 14:39:58;;;;;;;4.93;4.03;;;30.70;99.90;;;;;;5052756;28;20443;-46
2023/10/13 14:42:28;;;;;;;5.60;3.90;;;30.70;99.90;;;;;;5052543;28;20029;-46
2023/10/13 14:44:57;;;;;;;4.93;4.22;;;30.70;99.90;;;;;;5052573;28;20121;-46
2023/10/13 14:47:26;;;;;;;4.25;3.78;;;30.70;99.90;;;;;;5052606;28;20059;-46
2023/10/13 14:49:59;;;;;;;5.50;3.60;;;30.70;99.90;;;;;;5052591;28;20385;-46
2023/10/13 14:52:26;;;;;;;4.47;3.35;;;30.60;99.90;;;;;;5052580;28;20381;-46
2023/10/13 14:54:55;;;;;;;4.67;3.73;;;30.60;99.90;;;;;;5034689;28;20028;-46
2023/10/13 14:57:25;;;;;;;3.80;3.40;;;30.60;99.90;;;;;;5052480;28;20021;-46
2023/10/13 14:59:55;;;;;;;4.95;3.60;;;30.60;99.90;;;;;;5052365;28;20025;-46
2023/10/13 15:02:21;;;;;;;5.32;3.92;;;30.60;99.90;;;;;;5052164;28;20044;-46
2023/10/13 15:04:50;;;;;;;4.57;3.67;;;30.60;99.90;;;;;;5052486;28;20043;-46
2023/10/13 15:07:22;;;;;;;5.30;3.67;;;30.60;99.90;;;;;;5052432;28;20017;-46
2023/10/13 15:09:48;;;;;;;4.85;3.80;;;30.60;99.90;;;;;;5052297;28;20104;-46
2023/10/13 15:12:13;;;;;;;5.32;4.05;;;30.60;99.90;;;;;;5052569;28;20104;-46
2023/10/13 15:14:43;;;;;;;5.13;4.00;;;30.60;99.90;;;;;;5052273;28;20037;-46
2023/10/13 15:17:10;;;;;;;6.25;3.95;;;30.60;99.90;;;;;;5052195;28;20031;-47
2023/10/13 15:19:38;;;;;;;5.33;4.27;;;30.60;99.90;;;;;;5052050;28;20044;-46
2023/10/13 15:22:12;;;;;;;5.05;3.97;;;30.60;99.90;;;;;;5052054;28;20067;-46
2023/10/13 15:24:59;;;;;;;3.67;3.38;;;30.60;99.90;;;;;;5052113;28;20485;-44
2023/10/13 15:27:28;;;;;;;4.50;3.67;;;30.60;99.90;;;;;;5037165;28;20021;-47
2023/10/13 15:29:54;;;;;;;5.57;4.13;;;30.60;99.90;;;;;;5051223;28;20420;-47
2023/10/13 15:35:05;;;;;;;4.47;3.83;;;30.60;99.90;;;;;;5052201;28;20381;-46
2023/10/13 15:37:31;;;;;;;5.18;4.32;;;30.60;99.90;;;;;;5034268;28;20032;-47
2023/10/13 15:39:59;;;;;;;4.28;3.88;;;30.60;99.90;;;;;;5034132;28;20499;-46
2023/10/13 15:42:24;;;;;;;5.25;4.43;;;30.60;99.90;;;;;;5051781;28;20057;-46
2023/10/13 15:44:50;;;;;;;6.28;4.57;;;30.60;99.90;;;;;;5033931;28;20056;-46
2023/10/13 15:47:17;;;;;;;4.22;3.83;;;30.60;99.90;;;;;;5034235;28;20029;-47
2023/10/13 15:49:43;;;;;;;5.95;4.10;;;30.60;99.90;;;;;;5051705;28;20025;-46
2023/10/13 15:52:09;;;;;;;5.57;4.28;;;30.60;99.90;;;;;;5051942;28;20029;-47
2023/10/13 15:54:35;;;;;;;5.25;3.97;;;30.60;99.90;;;;;;5051777;28;20025;-47
2023/10/13 15:57:01;;;;;;;4.13;3.72;;;30.60;99.90;;;;;;5051665;28;20389;-47
2023/10/13 15:59:27;;;;;;;4.72;3.85;;;30.60;99.90;;;;;;5051573;28;20029;-46
2023/10/13 16:01:56;;;;;;;4.20;3.80;;;30.60;99.90;;;;;;5051413;28;20559;-47
2023/10/13 16:04:22;;;;;;;4.70;3.72;;;30.60;99.90;;;;;;5051440;28;20037;-46
2023/10/13 16:06:50;;;;;;;3.97;3.40;;;30.60;99.90;;;;;;5051826;28;20028;-46
2023/10/13 16:09:29;;;;;;;4.45;4.00;;;30.60;99.90;;;;;;5051654;28;20025;-46
2023/10/13 16:11:55;;;;;;;4.10;3.55;;;30.60;99.90;;;;;;5051440;28;20033;-47
2023/10/13 16:14:21;;;;;;;5.65;4.18;;;30.60;99.90;;;;;;5033770;28;20113;-46
2023/10/13 16:16:48;;;;;;;5.35;4.28;;;30.60;99.90;;;;;;5051654;28;20075;-47
2023/10/13 16:19:17;;;;;;;;;;;30.60;99.90;;;;;;5051862;28;20117;-46
2023/10/13 16:21:45;;;;;;;4.53;4.13;;;30.60;99.90;;;;;;5051345;28;19912;-46
2023/10/13 16:24:11;;;;;;;5.78;4.25;;;30.60;99.90;;;;;;5051343;28;20032;-46
2023/10/13 16:26:40;;;;;;;5.55;4.13;;;30.60;99.90;;;;;;5051415;28;20021;-47
2023/10/13 16:29:07;;;;;;;5.35;4.25;;;30.60;99.90;;;;;;5051288;28;20025;-46
2023/10/13 16:31:33;;;;;;;4.25;3.85;;;30.60;99.90;;;;;;5051382;28;20040;-46
2023/10/13 16:33:59;;;;;;;4.82;4.32;;;30.60;99.90;;;;;;5051400;28;20385;-46
2023/10/13 16:36:30;;;;;;;4.50;4.05;;;30.60;99.90;;;;;;5033616;28;20072;-46
2023/10/13 16:38:57;;;;;;;4.95;4.10;;;30.60;99.90;;;;;;5051402;28;20099;-47
2023/10/13 16:41:24;;;;;;;;;;;30.60;99.90;;;;;;5053089;28;20032;-47
2023/10/13 16:43:50;;;;;;;4.72;4.15;;;30.60;99.90;;;;;;5055259;28;19920;-47
2023/10/13 16:46:17;;;;;;;4.95;4.15;;;30.60;99.90;;;;;;5037005;28;20021;-46
2023/10/13 16:48:48;;;;;;;5.93;4.05;;;30.60;99.90;;;;;;5054838;28;20025;-46